sensor_id;sensor_type;location;lat;lon;timestamp;temperature;humidity
53286;DHT22;39171;45.550;12.074;2023-02-15T00:00:03;15.00;54.70
53286;DHT22;39171;45.550;12.074;2023-02-15T00:06:06;15.00;54.70
53286;DHT22;39171;45.550;12.074;2023-02-15T00:12:08;14.90;54.90
53286;DHT22;39171;45.550;12.074;2023-02-15T00:18:09;14.90;55.00
53286;DHT22;39171;45.550;12.074;2023-02-15T00:24:12;14.80;55.00
53286;DHT22;39171;45.550;12.074;2023-02-15T00:30:13;14.80;55.20
53286;DHT22;39171;45.550;12.074;2023-02-15T00:36:14;14.70;55.20
53286;DHT22;39171;45.550;12.074;2023-02-15T00:42:16;14.70;55.40
53286;DHT22;39171;45.550;12.074;2023-02-15T00:48:17;14.70;55.40
53286;DHT22;39171;45.550;12.074;2023-02-15T00:54:18;14.70;55.50
53286;DHT22;39171;45.550;12.074;2023-02-15T01:00:20;14.60;55.60
53286;DHT22;39171;45.550;12.074;2023-02-15T01:06:21;14.60;55.50
53286;DHT22;39171;45.550;12.074;2023-02-15T01:12:22;14.50;55.60
53286;DHT22;39171;45.550;12.074;2023-02-15T01:18:23;14.50;55.70
53286;DHT22;39171;45.550;12.074;2023-02-15T01:24:25;14.50;55.80
53286;DHT22;39171;45.550;12.074;2023-02-15T01:30:26;14.40;55.90
53286;DHT22;39171;45.550;12.074;2023-02-15T01:36:27;14.30;56.00
53286;DHT22;39171;45.550;12.074;2023-02-15T01:42:29;14.30;56.00
53286;DHT22;39171;45.550;12.074;2023-02-15T01:48:30;14.30;56.10
53286;DHT22;39171;45.550;12.074;2023-02-15T01:54:32;14.30;56.20
53286;DHT22;39171;45.550;12.074;2023-02-15T02:00:34;14.20;56.30
53286;DHT22;39171;45.550;12.074;2023-02-15T02:06:36;14.20;56.40
53286;DHT22;39171;45.550;12.074;2023-02-15T02:12:41;14.20;56.30
53286;DHT22;39171;45.550;12.074;2023-02-15T02:18:53;14.10;56.50
53286;DHT22;39171;45.550;12.074;2023-02-15T02:37:38;14.00;56.80
53286;DHT22;39171;45.550;12.074;2023-02-15T02:50:06;14.00;56.80
53286;DHT22;39171;45.550;12.074;2023-02-15T02:56:19;13.90;57.00
53286;DHT22;39171;45.550;12.074;2023-02-15T03:02:26;13.90;57.10
53286;DHT22;39171;45.550;12.074;2023-02-15T03:08:31;13.80;57.20
53286;DHT22;39171;45.550;12.074;2023-02-15T03:14:34;13.80;57.30
53286;DHT22;39171;45.550;12.074;2023-02-15T03:20:36;13.80;57.10
53286;DHT22;39171;45.550;12.074;2023-02-15T03:26:38;13.70;57.30
53286;DHT22;39171;45.550;12.074;2023-02-15T03:32:40;13.70;57.40
53286;DHT22;39171;45.550;12.074;2023-02-15T03:38:48;13.70;57.40
53286;DHT22;39171;45.550;12.074;2023-02-15T03:50:58;13.60;57.50
53286;DHT22;39171;45.550;12.074;2023-02-15T03:57:21;13.70;57.50
53286;DHT22;39171;45.550;12.074;2023-02-15T04:03:45;13.60;57.60
53286;DHT22;39171;45.550;12.074;2023-02-15T04:09:50;13.50;57.70
53286;DHT22;39171;45.550;12.074;2023-02-15T04:16:10;13.50;57.80
53286;DHT22;39171;45.550;12.074;2023-02-15T04:22:13;13.50;57.80
53286;DHT22;39171;45.550;12.074;2023-02-15T04:28:33;13.40;57.90
53286;DHT22;39171;45.550;12.074;2023-02-15T04:34:34;13.40;57.80
53286;DHT22;39171;45.550;12.074;2023-02-15T04:40:35;13.30;58.00
53286;DHT22;39171;45.550;12.074;2023-02-15T04:46:37;13.30;58.10
53286;DHT22;39171;45.550;12.074;2023-02-15T04:52:38;13.30;58.00
53286;DHT22;39171;45.550;12.074;2023-02-15T04:58:39;13.30;58.10
53286;DHT22;39171;45.550;12.074;2023-02-15T05:04:43;13.20;58.10
53286;DHT22;39171;45.550;12.074;2023-02-15T05:10:44;13.20;58.10
53286;DHT22;39171;45.550;12.074;2023-02-15T05:16:48;13.20;58.30
53286;DHT22;39171;45.550;12.074;2023-02-15T05:22:52;13.20;58.30
53286;DHT22;39171;45.550;12.074;2023-02-15T05:28:53;13.20;58.40
53286;DHT22;39171;45.550;12.074;2023-02-15T05:34:55;13.10;58.50
53286;DHT22;39171;45.550;12.074;2023-02-15T05:40:56;13.10;58.60
53286;DHT22;39171;45.550;12.074;2023-02-15T05:46:57;13.00;58.50
53286;DHT22;39171;45.550;12.074;2023-02-15T05:52:58;13.00;58.50
53286;DHT22;39171;45.550;12.074;2023-02-15T05:58:59;13.00;58.50
53286;DHT22;39171;45.550;12.074;2023-02-15T06:05:01;13.00;58.70
53286;DHT22;39171;45.550;12.074;2023-02-15T06:11:02;13.00;58.70
53286;DHT22;39171;45.550;12.074;2023-02-15T06:17:04;13.00;58.90
53286;DHT22;39171;45.550;12.074;2023-02-15T06:23:05;12.90;59.30
53286;DHT22;39171;45.550;12.074;2023-02-15T06:29:06;13.00;59.60
53286;DHT22;39171;45.550;12.074;2023-02-15T06:35:08;13.20;59.40
53286;DHT22;39171;45.550;12.074;2023-02-15T06:41:09;13.40;58.90
53286;DHT22;39171;45.550;12.074;2023-02-15T06:47:10;13.70;58.30
53286;DHT22;39171;45.550;12.074;2023-02-15T06:53:12;14.00;57.80
53286;DHT22;39171;45.550;12.074;2023-02-15T06:59:13;14.20;57.30
53286;DHT22;39171;45.550;12.074;2023-02-15T07:05:14;14.40;56.70
53286;DHT22;39171;45.550;12.074;2023-02-15T07:11:16;14.50;56.20
53286;DHT22;39171;45.550;12.074;2023-02-15T07:17:37;14.60;55.80
53286;DHT22;39171;45.550;12.074;2023-02-15T07:23:39;14.70;55.40
53286;DHT22;39171;45.550;12.074;2023-02-15T07:29:40;14.90;55.00
53286;DHT22;39171;45.550;12.074;2023-02-15T07:35:47;15.00;54.80
53286;DHT22;39171;45.550;12.074;2023-02-15T07:41:49;15.00;54.50
53286;DHT22;39171;45.550;12.074;2023-02-15T07:47:51;15.20;54.20
53286;DHT22;39171;45.550;12.074;2023-02-15T07:53:52;15.20;54.00
53286;DHT22;39171;45.550;12.074;2023-02-15T07:59:53;15.20;53.80
53286;DHT22;39171;45.550;12.074;2023-02-15T08:05:55;15.40;53.50
53286;DHT22;39171;45.550;12.074;2023-02-15T08:11:57;15.40;53.40
53286;DHT22;39171;45.550;12.074;2023-02-15T08:17:58;15.60;53.40
53286;DHT22;39171;45.550;12.074;2023-02-15T08:23:59;15.70;53.50
53286;DHT22;39171;45.550;12.074;2023-02-15T08:30:00;15.80;53.00
53286;DHT22;39171;45.550;12.074;2023-02-15T08:36:02;15.90;52.80
53286;DHT22;39171;45.550;12.074;2023-02-15T08:42:04;15.90;52.60
53286;DHT22;39171;45.550;12.074;2023-02-15T08:48:05;16.10;52.60
53286;DHT22;39171;45.550;12.074;2023-02-15T08:54:07;16.10;52.50
53286;DHT22;39171;45.550;12.074;2023-02-15T09:00:10;16.20;52.20
53286;DHT22;39171;45.550;12.074;2023-02-15T09:06:13;16.30;51.90
53286;DHT22;39171;45.550;12.074;2023-02-15T09:12:14;16.40;51.70
53286;DHT22;39171;45.550;12.074;2023-02-15T09:18:15;16.50;51.50
53286;DHT22;39171;45.550;12.074;2023-02-15T09:24:18;16.50;51.20
53286;DHT22;39171;45.550;12.074;2023-02-15T09:30:19;16.60;51.00
53286;DHT22;39171;45.550;12.074;2023-02-15T09:48:36;16.80;50.50
53286;DHT22;39171;45.550;12.074;2023-02-15T09:54:48;16.80;50.20
53286;DHT22;39171;45.550;12.074;2023-02-15T10:13:34;17.00;49.70
53286;DHT22;39171;45.550;12.074;2023-02-15T10:38:06;16.90;49.50
53286;DHT22;39171;45.550;12.074;2023-02-15T10:50:29;16.80;49.50
53286;DHT22;39171;45.550;12.074;2023-02-15T11:08:50;16.80;49.40
53286;DHT22;39171;45.550;12.074;2023-02-15T11:14:55;16.80;49.50
53286;DHT22;39171;45.550;12.074;2023-02-15T11:21:02;17.00;49.40
53286;DHT22;39171;45.550;12.074;2023-02-15T11:33:29;17.20;48.80
53286;DHT22;39171;45.550;12.074;2023-02-15T11:39:32;17.20;48.80
53286;DHT22;39171;45.550;12.074;2023-02-15T11:45:34;17.30;48.50
53286;DHT22;39171;45.550;12.074;2023-02-15T11:51:35;17.30;48.00
53286;DHT22;39171;45.550;12.074;2023-02-15T11:57:38;17.40;47.90
53286;DHT22;39171;45.550;12.074;2023-02-15T12:03:43;17.40;47.60
53286;DHT22;39171;45.550;12.074;2023-02-15T12:09:46;17.40;47.40
53286;DHT22;39171;45.550;12.074;2023-02-15T12:15:50;17.40;47.30
53286;DHT22;39171;45.550;12.074;2023-02-15T12:21:52;17.40;47.20
53286;DHT22;39171;45.550;12.074;2023-02-15T12:27:53;17.30;47.00
53286;DHT22;39171;45.550;12.074;2023-02-15T12:33:56;17.30;47.20
53286;DHT22;39171;45.550;12.074;2023-02-15T12:39:59;17.30;47.00
53286;DHT22;39171;45.550;12.074;2023-02-15T12:46:14;17.30;46.90
53286;DHT22;39171;45.550;12.074;2023-02-15T12:58:27;17.20;46.90
53286;DHT22;39171;45.550;12.074;2023-02-15T13:04:29;17.20;46.70
53286;DHT22;39171;45.550;12.074;2023-02-15T13:10:40;17.20;46.50
53286;DHT22;39171;45.550;12.074;2023-02-15T13:16:41;17.20;46.40
53286;DHT22;39171;45.550;12.074;2023-02-15T13:22:44;17.20;46.30
53286;DHT22;39171;45.550;12.074;2023-02-15T13:28:50;17.40;46.00
53286;DHT22;39171;45.550;12.074;2023-02-15T13:34:54;17.50;45.70
53286;DHT22;39171;45.550;12.074;2023-02-15T13:41:09;17.60;45.50
53286;DHT22;39171;45.550;12.074;2023-02-15T14:12:20;18.30;44.50
53286;DHT22;39171;45.550;12.074;2023-02-15T14:18:38;18.40;44.40
53286;DHT22;39171;45.550;12.074;2023-02-15T14:24:42;18.50;44.20
53286;DHT22;39171;45.550;12.074;2023-02-15T14:30:46;18.60;44.00
53286;DHT22;39171;45.550;12.074;2023-02-15T14:36:49;18.60;44.00
53286;DHT22;39171;45.550;12.074;2023-02-15T14:42:53;18.60;43.90
53286;DHT22;39171;45.550;12.074;2023-02-15T14:55:04;18.50;43.80
53286;DHT22;39171;45.550;12.074;2023-02-15T15:01:08;18.50;43.90
53286;DHT22;39171;45.550;12.074;2023-02-15T15:07:20;18.50;44.10
53286;DHT22;39171;45.550;12.074;2023-02-15T15:50:24;18.30;43.70
53286;DHT22;39171;45.550;12.074;2023-02-15T15:56:27;18.20;43.70
53286;DHT22;39171;45.550;12.074;2023-02-15T16:02:31;18.20;43.90
53286;DHT22;39171;45.550;12.074;2023-02-15T16:08:35;18.10;44.20
53286;DHT22;39171;45.550;12.074;2023-02-15T16:14:38;18.10;44.50
53286;DHT22;39171;45.550;12.074;2023-02-15T16:20:40;18.10;45.10
53286;DHT22;39171;45.550;12.074;2023-02-15T16:32:42;17.90;46.00
53286;DHT22;39171;45.550;12.074;2023-02-15T16:44:45;17.80;47.10
53286;DHT22;39171;45.550;12.074;2023-02-15T16:50:48;17.70;47.50
53286;DHT22;39171;45.550;12.074;2023-02-15T16:56:51;17.70;47.70
53286;DHT22;39171;45.550;12.074;2023-02-15T17:02:53;17.70;47.80
53286;DHT22;39171;45.550;12.074;2023-02-15T17:09:05;17.80;47.90
53286;DHT22;39171;45.550;12.074;2023-02-15T17:15:24;17.80;48.20
53286;DHT22;39171;45.550;12.074;2023-02-15T17:21:26;17.80;48.40
53286;DHT22;39171;45.550;12.074;2023-02-15T17:27:29;18.00;48.50
53286;DHT22;39171;45.550;12.074;2023-02-15T17:39:33;18.20;48.70
53286;DHT22;39171;45.550;12.074;2023-02-15T17:45:44;18.20;48.70
53286;DHT22;39171;45.550;12.074;2023-02-15T17:51:47;18.20;48.90
53286;DHT22;39171;45.550;12.074;2023-02-15T17:57:48;18.20;49.00
53286;DHT22;39171;45.550;12.074;2023-02-15T18:03:50;18.10;49.10
53286;DHT22;39171;45.550;12.074;2023-02-15T18:10:14;18.10;49.30
53286;DHT22;39171;45.550;12.074;2023-02-15T18:16:35;18.00;49.30
53286;DHT22;39171;45.550;12.074;2023-02-15T18:22:37;17.90;49.60
53286;DHT22;39171;45.550;12.074;2023-02-15T18:28:38;17.90;49.70
53286;DHT22;39171;45.550;12.074;2023-02-15T18:34:39;17.80;49.80
53286;DHT22;39171;45.550;12.074;2023-02-15T18:40:42;17.80;50.00
53286;DHT22;39171;45.550;12.074;2023-02-15T18:46:43;17.70;50.20
53286;DHT22;39171;45.550;12.074;2023-02-15T18:52:45;17.70;50.30
53286;DHT22;39171;45.550;12.074;2023-02-15T18:58:47;17.60;50.50
53286;DHT22;39171;45.550;12.074;2023-02-15T19:04:49;17.50;50.60
53286;DHT22;39171;45.550;12.074;2023-02-15T19:10:50;17.50;50.70
53286;DHT22;39171;45.550;12.074;2023-02-15T19:16:51;17.50;50.90
53286;DHT22;39171;45.550;12.074;2023-02-15T19:22:54;17.40;50.90
53286;DHT22;39171;45.550;12.074;2023-02-15T19:28:55;17.40;51.10
53286;DHT22;39171;45.550;12.074;2023-02-15T19:34:57;17.30;51.40
53286;DHT22;39171;45.550;12.074;2023-02-15T19:40:59;17.30;51.40
53286;DHT22;39171;45.550;12.074;2023-02-15T19:47:01;17.20;51.60
53286;DHT22;39171;45.550;12.074;2023-02-15T19:53:03;17.20;51.70
53286;DHT22;39171;45.550;12.074;2023-02-15T19:59:04;17.20;51.80
53286;DHT22;39171;45.550;12.074;2023-02-15T20:05:05;17.10;51.90
53286;DHT22;39171;45.550;12.074;2023-02-15T20:11:08;17.10;52.00
53286;DHT22;39171;45.550;12.074;2023-02-15T20:17:10;17.00;52.20
53286;DHT22;39171;45.550;12.074;2023-02-15T20:23:19;17.00;52.20
53286;DHT22;39171;45.550;12.074;2023-02-15T20:29:21;16.90;52.30
53286;DHT22;39171;45.550;12.074;2023-02-15T20:35:23;16.90;52.50
53286;DHT22;39171;45.550;12.074;2023-02-15T20:41:25;16.80;52.60
53286;DHT22;39171;45.550;12.074;2023-02-15T20:47:35;16.80;52.80
53286;DHT22;39171;45.550;12.074;2023-02-15T20:53:36;16.70;52.90
53286;DHT22;39171;45.550;12.074;2023-02-15T20:59:38;16.70;53.00
53286;DHT22;39171;45.550;12.074;2023-02-15T21:05:40;16.60;53.20
53286;DHT22;39171;45.550;12.074;2023-02-15T21:11:42;16.50;53.20
53286;DHT22;39171;45.550;12.074;2023-02-15T21:17:43;16.50;53.30
53286;DHT22;39171;45.550;12.074;2023-02-15T21:23:44;16.50;53.40
53286;DHT22;39171;45.550;12.074;2023-02-15T21:29:45;16.50;53.50
53286;DHT22;39171;45.550;12.074;2023-02-15T21:35:47;16.40;53.60
53286;DHT22;39171;45.550;12.074;2023-02-15T21:41:49;16.30;53.70
53286;DHT22;39171;45.550;12.074;2023-02-15T21:48:09;16.30;53.80
53286;DHT22;39171;45.550;12.074;2023-02-15T21:54:12;16.20;53.90
53286;DHT22;39171;45.550;12.074;2023-02-15T22:00:17;16.20;54.00
53286;DHT22;39171;45.550;12.074;2023-02-15T22:06:19;16.20;54.10
53286;DHT22;39171;45.550;12.074;2023-02-15T22:12:20;16.10;54.30
53286;DHT22;39171;45.550;12.074;2023-02-15T22:18:22;16.10;54.30
53286;DHT22;39171;45.550;12.074;2023-02-15T22:24:24;16.10;54.50
53286;DHT22;39171;45.550;12.074;2023-02-15T22:30:28;16.00;54.60
53286;DHT22;39171;45.550;12.074;2023-02-15T22:36:29;16.00;54.60
53286;DHT22;39171;45.550;12.074;2023-02-15T22:42:31;15.90;54.70
53286;DHT22;39171;45.550;12.074;2023-02-15T22:48:32;15.90;54.70
53286;DHT22;39171;45.550;12.074;2023-02-15T22:54:33;15.80;54.90
53286;DHT22;39171;45.550;12.074;2023-02-15T23:00:37;15.70;55.00
53286;DHT22;39171;45.550;12.074;2023-02-15T23:06:38;15.70;55.10
53286;DHT22;39171;45.550;12.074;2023-02-15T23:12:39;15.70;55.20
53286;DHT22;39171;45.550;12.074;2023-02-15T23:19:00;15.70;55.30
53286;DHT22;39171;45.550;12.074;2023-02-15T23:25:03;15.60;55.40
53286;DHT22;39171;45.550;12.074;2023-02-15T23:37:16;15.50;55.60
53286;DHT22;39171;45.550;12.074;2023-02-15T23:43:19;15.50;55.70
53286;DHT22;39171;45.550;12.074;2023-02-15T23:49:21;15.50;55.80
53286;DHT22;39171;45.550;12.074;2023-02-15T23:55:27;15.40;55.90
